Time;durP1;ratioP1;P1;durP2;ratioP2;P2;SDS_P1;SDS_P2;PMS_P1;PMS_P2;Temp;Humidity;BMP_temperature;BMP_pressure;BME280_temperature;BME280_humidity;BME280_pressure;Samples;Min_cycle;Max_cycle;Signal;HPM_P1;HPM_P2
2023/12/31 00:01:55;;;;;;;;;1.00;0.00;;;;;9.41;79.75;98946.84;5096901;28;8830;-57
2023/12/31 00:04:23;;;;;;;;;0.00;0.00;;;;;9.47;79.68;98947.09;5098842;28;8849;-57
2023/12/31 00:06:50;;;;;;;;;0.00;0.00;;;;;9.47;79.58;98938.28;5096424;28;8833;-58
2023/12/31 00:09:18;;;;;;;;;1.00;0.75;;;;;9.51;79.90;98945.00;5095798;28;8841;-57
2023/12/31 00:11:46;;;;;;;;;1.00;1.00;;;;;9.57;79.59;98955.09;5097913;28;8933;-57
2023/12/31 00:14:14;;;;;;;;;0.50;0.50;;;;;9.58;79.68;98932.84;5097250;28;8858;-57
2023/12/31 00:16:41;;;;;;;;;0.00;0.00;;;;;9.57;79.29;98937.28;5096027;28;8916;-57
2023/12/31 00:19:09;;;;;;;;;0.50;0.50;;;;;9.59;79.80;98921.22;5096927;28;8830;-57
2023/12/31 00:21:37;;;;;;;;;0.75;0.75;;;;;9.60;79.80;98917.56;5095798;28;8803;-59
2023/12/31 00:24:05;;;;;;;;;0.00;0.00;;;;;9.59;79.79;98923.88;5096601;28;8833;-57
2023/12/31 00:26:33;;;;;;;;;2.50;2.00;;;;;9.58;79.59;98920.38;5095790;28;8841;-58
2023/12/31 00:29:01;;;;;;;;;2.50;1.00;;;;;9.55;79.65;98920.66;5094653;28;8873;-57
2023/12/31 00:31:29;;;;;;;;;3.00;1.00;;;;;9.57;79.17;98909.91;5099530;28;8814;-57
2023/12/31 00:33:57;;;;;;;;;0.50;0.50;;;;;9.57;79.40;98909.91;5115320;28;8804;-57
2023/12/31 00:36:26;;;;;;;;;3.00;1.00;;;;;9.57;79.44;98892.13;5111423;28;8810;-58
2023/12/31 00:38:54;;;;;;;;;1.25;0.75;;;;;9.55;79.83;98878.13;5096927;28;8883;-58
2023/12/31 00:41:21;;;;;;;;;1.00;1.00;;;;;9.53;79.54;98872.13;5092388;28;8824;-58
2023/12/31 00:43:49;;;;;;;;;1.00;1.00;;;;;9.51;79.51;98868.78;5076234;28;8868;-60
2023/12/31 00:46:17;;;;;;;;;0.00;0.00;;;;;9.50;79.96;98883.03;5075920;28;8959;-59
2023/12/31 00:48:45;;;;;;;;;1.00;1.00;;;;;9.51;79.51;98871.44;5089544;28;8920;-59
2023/12/31 00:51:13;;;;;;;;;1.00;1.00;;;;;9.52;80.08;98881.09;5116510;28;8812;-57
2023/12/31 00:53:41;;;;;;;;;1.00;1.00;;;;;9.52;79.96;98870.47;5116044;28;9520;-58
2023/12/31 00:56:09;;;;;;;;;1.00;1.00;;;;;9.55;79.84;98870.16;5116623;28;8824;-59
2023/12/31 00:58:37;;;;;;;;;1.00;1.00;;;;;9.56;79.50;98861.22;5103609;28;8860;-57
2023/12/31 01:01:04;;;;;;;;;2.00;1.00;;;;;9.51;79.81;98860.81;5075620;28;8840;-58
2023/12/31 01:03:33;;;;;;;;;1.00;0.25;;;;;9.47;79.87;98861.22;5075716;28;8840;-58
2023/12/31 01:06:01;;;;;;;;;0.00;0.00;;;;;9.47;79.77;98861.22;5076008;28;8950;-59
2023/12/31 01:08:30;;;;;;;;;4.00;2.50;;;;;9.50;79.71;98855.63;5075956;28;8950;-55
2023/12/31 01:10:57;;;;;;;;;3.00;1.00;;;;;9.50;79.62;98861.78;5075583;28;8820;-58
2023/12/31 01:13:25;;;;;;;;;3.00;3.00;;;;;9.53;79.70;98842.06;5074971;28;8848;-57
2023/12/31 01:15:53;;;;;;;;;4.00;3.50;;;;;9.57;79.73;98838.16;5075271;28;8840;-58
2023/12/31 01:18:20;;;;;;;;;0.50;0.25;;;;;9.56;79.39;98836.47;5075701;28;8847;-57
2023/12/31 01:20:49;;;;;;;;;1.50;1.50;;;;;9.56;79.03;98833.81;5075475;28;8862;-58
2023/12/31 01:23:16;;;;;;;;;3.00;1.00;;;;;9.52;79.71;98827.94;5075410;28;8820;-58
2023/12/31 01:25:44;;;;;;;;;2.25;1.50;;;;;9.57;79.47;98820.38;5086137;28;8822;-58
2023/12/31 01:28:13;;;;;;;;;2.00;2.00;;;;;9.60;79.23;98828.06;5095996;28;8834;-58
2023/12/31 01:30:40;;;;;;;;;0.00;0.00;;;;;9.61;79.28;98832.41;5095531;28;8915;-58
2023/12/31 01:33:08;;;;;;;;;3.00;3.00;;;;;9.60;79.16;98836.03;5095076;28;8806;-58
2023/12/31 01:35:36;;;;;;;;;2.50;2.50;;;;;9.59;78.96;98818.44;5098794;28;8903;-57
2023/12/31 01:38:04;;;;;;;;;1.00;1.00;;;;;9.57;78.98;98814.22;5099353;28;8929;-57
2023/12/31 01:40:31;;;;;;;;;3.25;3.00;;;;;9.59;79.40;98821.09;5099650;28;8841;-59
2023/12/31 01:42:59;;;;;;;;;1.00;1.00;;;;;9.60;78.69;98800.66;5098679;28;8830;-57
2023/12/31 01:45:27;;;;;;;;;1.50;1.00;;;;;9.60;78.51;98797.97;5099722;28;8818;-60
2023/12/31 01:47:55;;;;;;;;;1.00;0.00;;;;;9.58;78.72;98792.81;5099714;28;8955;-57
2023/12/31 01:50:23;;;;;;;;;2.00;2.00;;;;;9.55;79.28;98790.44;5098713;28;9490;-58
2023/12/31 01:52:51;;;;;;;;;0.00;0.00;;;;;9.57;78.61;98783.16;5097103;28;8837;-57
2023/12/31 01:55:18;;;;;;;;;1.00;1.00;;;;;9.55;78.54;98774.50;5097803;28;8879;-57
2023/12/31 01:57:46;;;;;;;;;1.75;1.50;;;;;9.58;78.84;98760.91;5098415;28;8822;-57
2023/12/31 02:00:14;;;;;;;;;1.00;1.00;;;;;9.60;78.59;98766.94;5101577;28;8834;-58
2023/12/31 02:02:42;;;;;;;;;2.00;1.00;;;;;9.59;78.40;98754.66;5100960;28;8834;-57
2023/12/31 02:05:11;;;;;;;;;2.00;2.00;;;;;9.59;78.23;98759.97;5102225;28;9551;-57
2023/12/31 02:07:39;;;;;;;;;0.75;0.75;;;;;9.57;78.20;98745.94;5098515;28;8822;-57
2023/12/31 02:10:07;;;;;;;;;1.50;1.00;;;;;9.59;78.34;98740.50;5100647;28;8826;-57
2023/12/31 02:12:35;;;;;;;;;0.50;0.50;;;;;9.60;78.25;98737.72;5119409;28;9594;-57
2023/12/31 02:15:03;;;;;;;;;0.00;0.00;;;;;9.61;77.92;98747.34;5119748;28;8800;-57
2023/12/31 02:17:30;;;;;;;;;1.00;1.00;;;;;9.62;77.91;98735.75;5119387;28;8820;-57
2023/12/31 02:19:58;;;;;;;;;3.50;2.00;;;;;9.61;78.29;98731.41;5119670;28;8812;-58
2023/12/31 02:22:26;;;;;;;;;0.00;0.00;;;;;9.59;78.17;98749.31;5116893;28;8823;-57
2023/12/31 02:24:54;;;;;;;;;0.75;0.75;;;;;9.63;77.71;98729.44;5082505;28;8820;-57
2023/12/31 02:27:22;;;;;;;;;1.00;1.00;;;;;9.62;77.96;98718.94;5078929;28;9083;-57
2023/12/31 02:29:49;;;;;;;;;0.00;0.00;;;;;9.59;78.08;98709.47;5078918;28;8939;-58
2023/12/31 02:32:17;;;;;;;;;2.50;0.50;;;;;9.60;77.89;98713.78;5078717;28;8888;-59
2023/12/31 02:34:45;;;;;;;;;0.00;0.00;;;;;9.58;77.53;98706.94;5078966;28;8859;-57
2023/12/31 02:37:13;;;;;;;;;0.75;0.75;;;;;9.57;78.07;98708.75;5078810;28;9474;-59
2023/12/31 02:39:41;;;;;;;;;1.50;1.50;;;;;9.57;77.97;98711.41;5078541;28;8812;-57
2023/12/31 02:42:09;;;;;;;;;0.00;0.00;;;;;9.59;77.86;98705.97;5078906;28;8820;-58
2023/12/31 02:44:36;;;;;;;;;1.00;1.00;;;;;9.60;77.96;98697.84;5078183;28;8844;-57
2023/12/31 02:47:04;;;;;;;;;2.00;1.00;;;;;9.60;77.38;98704.97;5078430;28;8840;-58
2023/12/31 02:49:32;;;;;;;;;0.00;0.00;;;;;9.57;77.82;98698.13;5078438;28;8909;-57
2023/12/31 02:52:00;;;;;;;;;0.00;0.00;;;;;9.58;77.62;98689.16;5078044;28;8836;-59
2023/12/31 02:54:28;;;;;;;;;1.00;1.00;;;;;9.58;77.68;98689.16;5078137;28;8831;-57
2023/12/31 02:56:55;;;;;;;;;1.00;1.00;;;;;9.59;77.46;98696.19;5078977;28;8848;-59
2023/12/31 02:59:23;;;;;;;;;0.00;0.00;;;;;9.62;77.62;98687.03;5084113;28;8822;-57
2023/12/31 03:01:51;;;;;;;;;0.75;0.75;;;;;9.63;77.46;98697.53;5098002;28;8818;-57
2023/12/31 03:04:18;;;;;;;;;1.00;1.00;;;;;9.61;77.06;98694.19;5097966;28;8821;-57
2023/12/31 03:06:51;;;;;;;;;0.75;0.75;;;;;9.60;77.37;98679.25;5095397;28;8810;-57
2023/12/31 03:09:21;;;;;;;;;0.00;0.00;;;;;9.59;77.26;98682.03;5097017;28;8864;-57
2023/12/31 03:11:50;;;;;;;;;3.00;1.00;;;;;9.59;77.32;98679.38;5098561;28;8799;-57
2023/12/31 03:14:18;;;;;;;;;5.00;3.50;;;;;9.62;77.09;98663.13;5097615;28;8834;-57
2023/12/31 03:16:46;;;;;;;;;0.50;0.50;;;;;9.65;77.11;98652.22;5097295;28;8822;-58
2023/12/31 03:19:14;;;;;;;;;1.00;1.00;;;;;9.66;77.18;98649.41;5093437;28;8829;-57
2023/12/31 03:21:42;;;;;;;;;1.00;1.00;;;;;9.68;77.21;98636.81;5117164;28;8804;-58
2023/12/31 03:24:10;;;;;;;;;1.00;0.50;;;;;9.69;77.05;98638.47;5111993;28;8806;-58
2023/12/31 03:26:37;;;;;;;;;0.50;0.25;;;;;9.72;76.93;98634.69;5098321;28;8844;-57
2023/12/31 03:29:05;;;;;;;;;0.50;0.00;;;;;9.73;76.60;98629.22;5098023;28;8844;-59
2023/12/31 03:31:33;;;;;;;;;3.00;1.00;;;;;9.70;76.91;98618.88;5092209;28;8820;-57
2023/12/31 03:34:00;;;;;;;;;0.00;0.00;;;;;9.68;77.03;98628.00;5078315;28;8935;-58
2023/12/31 03:36:30;;;;;;;;;1.00;1.00;;;;;9.63;76.83;98628.44;5091709;28;8831;-57
2023/12/31 03:38:58;;;;;;;;;2.00;2.00;;;;;9.60;77.32;98623.44;5118520;28;8812;-59
2023/12/31 03:41:26;;;;;;;;;1.00;1.00;;;;;9.58;76.78;98619.25;5118087;28;8820;-57
2023/12/31 03:43:54;;;;;;;;;1.50;0.50;;;;;9.52;77.02;98623.34;5117995;28;9473;-57
2023/12/31 03:46:21;;;;;;;;;2.00;1.00;;;;;9.49;76.77;98615.66;5118069;28;8804;-58
2023/12/31 03:48:50;;;;;;;;;0.00;0.00;;;;;9.47;77.60;98619.44;5101362;28;8829;-58
2023/12/31 03:51:17;;;;;;;;;0.50;0.50;;;;;9.43;77.54;98602.94;5077284;28;8967;-59
2023/12/31 03:53:45;;;;;;;;;1.00;1.00;;;;;9.41;77.43;98615.53;5076784;28;8820;-58
2023/12/31 03:56:13;;;;;;;;;0.00;0.00;;;;;9.42;77.70;98606.59;5077248;28;8882;-58
2023/12/31 03:58:41;;;;;;;;;1.00;1.00;;;;;9.40;77.63;98605.06;5077053;28;8827;-59
2023/12/31 04:01:10;;;;;;;;;0.00;0.00;;;;;9.35;77.78;98604.69;5076629;28;8962;-59
2023/12/31 04:03:39;;;;;;;;;1.00;1.00;;;;;9.28;77.89;98596.44;5076305;28;8840;-59
2023/12/31 04:06:07;;;;;;;;;1.00;1.00;;;;;9.24;77.82;98594.22;5077229;28;8828;-58
2023/12/31 04:08:35;;;;;;;;;1.00;1.00;;;;;9.24;77.51;98592.44;5076907;28;8849;-59
2023/12/31 04:11:02;;;;;;;;;0.25;0.25;;;;;9.21;78.01;98589.22;5076554;28;8824;-59
2023/12/31 04:13:30;;;;;;;;;1.00;1.00;;;;;9.21;77.74;98578.59;5087932;28;8953;-59
2023/12/31 04:15:58;;;;;;;;;1.00;0.75;;;;;9.18;77.59;98577.06;5096295;28;8834;-59
2023/12/31 04:18:25;;;;;;;;;1.50;1.50;;;;;9.19;77.49;98569.97;5096954;28;8850;-57
2023/12/31 04:20:54;;;;;;;;;1.25;1.25;;;;;9.18;77.64;98566.44;5096074;28;8814;-59
2023/12/31 04:23:21;;;;;;;;;0.00;0.00;;;;;9.21;77.74;98562.66;5095249;28;8837;-57
2023/12/31 04:25:49;;;;;;;;;0.00;0.00;;;;;9.20;77.77;98553.84;5096556;28;8853;-58
2023/12/31 04:28:17;;;;;;;;;0.00;0.00;;;;;9.18;78.12;98549.69;5095956;28;8907;-59
2023/12/31 04:33:50;;;;;;;;;0.50;0.50;;;;;9.13;77.87;98536.84;5095964;28;8810;-58
2023/12/31 04:36:18;;;;;;;;;3.00;1.50;;;;;9.12;77.75;98535.16;5096571;28;9620;-58
2023/12/31 04:38:46;;;;;;;;;0.75;0.75;;;;;9.11;77.91;98509.59;5096720;28;8822;-59
2023/12/31 04:41:13;;;;;;;;;1.00;1.00;;;;;9.13;77.73;98501.50;5097779;28;8822;-58
2023/12/31 04:43:41;;;;;;;;;1.00;1.00;;;;;9.15;77.93;98495.06;5095761;28;8847;-57
2023/12/31 04:46:09;;;;;;;;;0.00;0.00;;;;;9.17;77.34;98487.78;5096316;28;8830;-57
2023/12/31 04:48:40;;;;;;;;;0.00;0.00;;;;;9.18;77.44;98480.66;5095773;28;8810;-59
2023/12/31 04:51:07;;;;;;;;;1.00;0.75;;;;;9.19;78.17;98475.16;5095954;28;8861;-58
2023/12/31 04:53:36;;;;;;;;;1.00;1.00;;;;;9.21;77.99;98467.91;5094733;28;8806;-59
2023/12/31 04:56:03;;;;;;;;;0.00;0.00;;;;;9.26;77.72;98470.13;5096294;28;8814;-59
2023/12/31 04:58:31;;;;;;;;;1.00;0.00;;;;;9.30;77.04;98463.50;5096590;28;8825;-58
2023/12/31 05:00:59;;;;;;;;;1.00;1.00;;;;;9.34;77.23;98464.88;5096316;28;8822;-59
2023/12/31 05:03:27;;;;;;;;;0.00;0.00;;;;;9.38;77.10;98453.81;5098238;28;8818;-57
2023/12/31 05:05:55;;;;;;;;;0.00;0.00;;;;;9.38;76.96;98445.84;5097875;28;9538;-59
2023/12/31 05:08:22;;;;;;;;;0.00;0.00;;;;;9.42;77.20;98439.22;5081634;28;8839;-56
2023/12/31 05:10:51;;;;;;;;;0.00;0.00;;;;;9.44;76.83;98437.25;5104628;28;8808;-59
2023/12/31 05:13:19;;;;;;;;;0.50;0.50;;;;;9.46;77.08;98431.78;5108263;28;8828;-58
2023/12/31 05:15:46;;;;;;;;;0.75;0.75;;;;;9.50;76.19;98414.56;5105469;28;8820;-57
2023/12/31 05:18:14;;;;;;;;;0.50;0.50;;;;;9.57;76.03;98419.09;5116156;28;8816;-58
2023/12/31 05:20:42;;;;;;;;;1.00;1.00;;;;;9.63;76.47;98409.69;5114811;28;8912;-58
2023/12/31 05:23:09;;;;;;;;;1.00;0.00;;;;;9.68;75.92;98400.28;5115011;28;8870;-59
2023/12/31 05:25:38;;;;;;;;;0.25;0.25;;;;;9.73;76.44;98395.31;5115718;28;8914;-60
2023/12/31 05:28:06;;;;;;;;;1.00;1.00;;;;;9.79;75.57;98386.72;5099242;28;8814;-59
2023/12/31 05:30:34;;;;;;;;;1.00;0.75;;;;;9.84;75.65;98387.09;5090125;28;8828;-58
2023/12/31 05:33:01;;;;;;;;;0.00;0.00;;;;;9.87;75.24;98392.09;5075162;28;8847;-58
2023/12/31 05:35:29;;;;;;;;;0.75;0.75;;;;;9.93;75.00;98390.66;5075545;28;8844;-58
2023/12/31 05:37:57;;;;;;;;;0.00;0.00;;;;;9.96;75.26;98375.19;5075471;28;8820;-59
2023/12/31 05:40:25;;;;;;;;;1.00;1.00;;;;;10.00;74.76;98376.56;5075348;28;8851;-60
2023/12/31 05:42:53;;;;;;;;;0.00;0.00;;;;;10.00;74.84;98370.41;5074977;28;8918;-57
2023/12/31 05:45:20;;;;;;;;;0.50;0.00;;;;;10.03;74.58;98354.19;5074937;28;8836;-58
2023/12/31 05:47:48;;;;;;;;;0.75;0.00;;;;;10.04;74.83;98363.81;5075817;28;8812;-58
2023/12/31 05:50:16;;;;;;;;;0.00;0.00;;;;;10.07;73.88;98352.84;5075678;28;8824;-58
2023/12/31 05:52:44;;;;;;;;;1.00;1.00;;;;;10.08;73.90;98350.03;5075574;28;8832;-59
2023/12/31 05:55:12;;;;;;;;;0.75;0.75;;;;;10.11;73.99;98347.06;5075587;28;8836;-57
2023/12/31 05:57:40;;;;;;;;;1.67;0.33;;;;;10.14;74.23;98345.91;5075414;28;8882;-60
2023/12/31 06:00:08;;;;;;;;;0.00;0.00;;;;;10.17;73.96;98350.94;5075387;28;8824;-59
2023/12/31 06:02:35;;;;;;;;;1.25;0.75;;;;;10.21;73.13;98353.13;5075230;28;8820;-59
2023/12/31 06:05:03;;;;;;;;;0.50;0.50;;;;;10.20;73.02;98340.81;5093548;28;8834;-60
2023/12/31 06:07:31;;;;;;;;;0.50;0.50;;;;;10.20;72.96;98332.00;5095114;28;8834;-59
2023/12/31 06:09:59;;;;;;;;;1.00;0.50;;;;;10.20;72.64;98330.19;5094347;28;8806;-60
2023/12/31 06:12:26;;;;;;;;;0.50;0.50;;;;;10.16;73.25;98318.16;5094513;28;8887;-59
2023/12/31 06:14:54;;;;;;;;;1.00;1.00;;;;;10.13;73.32;98302.53;5093729;28;8830;-58
2023/12/31 06:17:21;;;;;;;;;3.00;1.00;;;;;10.14;73.24;98328.16;5094974;28;9756;-58
2023/12/31 06:19:49;;;;;;;;;0.00;0.00;;;;;10.11;73.00;98306.34;5095289;28;8867;-59
2023/12/31 06:22:17;;;;;;;;;1.00;1.00;;;;;10.12;73.30;98311.53;5097821;28;8818;-59
2023/12/31 06:24:44;;;;;;;;;0.00;0.00;;;;;10.14;72.79;98316.66;5098466;28;8952;-59
2023/12/31 06:27:12;;;;;;;;;1.00;1.00;;;;;10.14;72.75;98311.34;5098409;28;8822;-59
2023/12/31 06:29:39;;;;;;;;;0.50;0.25;;;;;10.12;73.14;98314.19;5099034;28;8848;-60
2023/12/31 06:32:07;;;;;;;;;0.25;0.25;;;;;10.14;73.19;98300.69;5097681;28;9511;-59
2023/12/31 06:34:35;;;;;;;;;0.75;0.75;;;;;10.12;72.75;98295.56;5098409;28;9602;-60
2023/12/31 06:37:03;;;;;;;;;0.50;0.50;;;;;10.10;72.58;98281.56;5097723;28;8944;-59
2023/12/31 06:39:30;;;;;;;;;0.00;0.00;;;;;10.11;72.77;98285.88;5098101;28;8810;-59
2023/12/31 06:41:58;;;;;;;;;0.00;0.00;;;;;10.08;73.42;98282.75;5101572;28;8798;-59
2023/12/31 06:44:25;;;;;;;;;0.00;0.00;;;;;10.03;72.97;98285.84;5118740;28;8848;-59
2023/12/31 06:46:53;;;;;;;;;1.00;1.00;;;;;10.01;73.09;98287.00;5111519;28;8890;-59
2023/12/31 06:49:21;;;;;;;;;0.00;0.00;;;;;10.01;72.87;98287.81;5099050;28;8826;-58
2023/12/31 06:51:49;;;;;;;;;1.00;1.00;;;;;10.01;72.71;98293.13;5098944;28;8821;-59
2023/12/31 06:54:16;;;;;;;;;0.75;0.75;;;;;10.01;72.95;98293.13;5098785;28;8842;-59
2023/12/31 06:56:44;;;;;;;;;1.00;1.00;;;;;10.02;73.24;98294.78;5082342;28;8837;-59
2023/12/31 06:59:12;;;;;;;;;0.75;0.75;;;;;10.02;72.65;98273.53;5094953;28;8819;-59
2023/12/31 07:01:39;;;;;;;;;0.00;0.00;;;;;10.01;73.02;98282.50;5118275;28;8816;-56
2023/12/31 07:04:07;;;;;;;;;2.00;2.00;;;;;10.00;73.02;98290.63;5118238;28;8838;-59
2023/12/31 07:06:35;;;;;;;;;1.00;1.00;;;;;10.01;73.14;98285.16;5118450;28;8839;-58
2023/12/31 07:09:06;;;;;;;;;1.00;1.00;;;;;10.01;73.10;98277.19;5118702;28;8927;-58
2023/12/31 07:11:34;;;;;;;;;1.00;1.00;;;;;9.99;73.15;98276.50;5118365;28;8835;-60
2023/12/31 07:14:02;;;;;;;;;1.00;1.00;;;;;9.97;72.90;98265.22;5081427;28;8852;-58
2023/12/31 07:16:29;;;;;;;;;1.00;0.75;;;;;9.97;73.09;98265.22;5076655;28;9564;-60
2023/12/31 07:18:57;;;;;;;;;3.00;1.00;;;;;9.95;72.57;98261.84;5077920;28;8935;-60
2023/12/31 07:21:24;;;;;;;;;0.00;0.00;;;;;9.95;73.29;98261.84;5077705;28;8824;-60
2023/12/31 07:23:52;;;;;;;;;1.00;1.00;;;;;9.94;72.91;98262.84;5077416;28;8886;-57
2023/12/31 07:26:19;;;;;;;;;2.00;1.00;;;;;9.96;73.03;98252.06;5077486;28;8848;-57
2023/12/31 07:28:47;;;;;;;;;0.50;0.00;;;;;9.94;72.83;98249.56;5077509;28;8858;-57
2023/12/31 07:31:15;;;;;;;;;1.00;1.00;;;;;9.96;72.43;98247.56;5077008;28;8854;-58
2023/12/31 07:33:42;;;;;;;;;1.00;1.00;;;;;9.97;72.41;98249.25;5077125;28;8824;-57
2023/12/31 07:36:10;;;;;;;;;1.00;1.00;;;;;9.99;72.47;98251.75;5089593;28;8838;-57
2023/12/31 07:38:38;;;;;;;;;1.25;0.50;;;;;9.99;72.92;98233.97;5097581;28;8842;-57
2023/12/31 07:41:06;;;;;;;;;2.50;2.00;;;;;10.01;72.37;98247.13;5097287;28;8833;-57
2023/12/31 07:43:34;;;;;;;;;0.00;0.00;;;;;10.05;72.20;98227.19;5095526;28;8834;-57
2023/12/31 07:46:02;;;;;;;;;1.00;0.00;;;;;10.06;72.17;98229.72;5096686;28;8845;-57
2023/12/31 07:48:29;;;;;;;;;3.00;3.00;;;;;10.06;72.03;98226.19;5097345;28;8842;-57
2023/12/31 07:50:57;;;;;;;;;1.00;1.00;;;;;10.05;72.38;98229.84;5096753;28;8826;-57
2023/12/31 07:53:25;;;;;;;;;1.00;1.00;;;;;10.07;72.50;98218.06;5096914;28;8852;-57
2023/12/31 07:55:52;;;;;;;;;1.00;1.00;;;;;10.09;72.53;98216.09;5096154;28;8850;-59
2023/12/31 07:58:24;;;;;;;;;1.00;0.00;;;;;10.09;72.53;98205.44;5093086;28;8933;-59
2023/12/31 08:00:52;;;;;;;;;0.50;0.50;;;;;10.09;72.58;98216.09;5079250;28;9590;-57
2023/12/31 08:03:19;;;;;;;;;2.50;2.50;;;;;10.09;72.19;98199.31;5096742;28;8834;-59
2023/12/31 08:05:47;;;;;;;;;0.00;0.00;;;;;10.06;72.98;98199.63;5094153;28;8826;-58
2023/12/31 08:08:15;;;;;;;;;0.00;0.00;;;;;10.06;72.62;98211.09;5090538;28;8826;-57
2023/12/31 08:10:44;;;;;;;;;1.00;1.00;;;;;10.09;72.54;98197.47;5100235;28;8867;-57
2023/12/31 08:13:12;;;;;;;;;0.00;0.00;;;;;10.12;72.62;98205.13;5106992;28;8859;-59
2023/12/31 08:15:39;;;;;;;;;1.50;1.50;;;;;10.14;72.12;98194.31;5117350;28;9511;-57
2023/12/31 08:18:07;;;;;;;;;2.00;2.00;;;;;10.12;72.74;98204.28;5099543;28;8829;-59
2023/12/31 08:20:35;;;;;;;;;0.50;0.50;;;;;10.15;72.28;98212.78;5090875;28;8844;-57
2023/12/31 08:23:03;;;;;;;;;1.00;1.00;;;;;10.20;72.25;98194.53;5076293;28;8848;-58
2023/12/31 08:25:31;;;;;;;;;2.00;2.00;;;;;10.27;71.78;98192.88;5076420;28;8917;-57
2023/12/31 08:27:58;;;;;;;;;2.00;1.00;;;;;10.31;72.08;98193.38;5076554;28;8832;-57
2023/12/31 08:30:26;;;;;;;;;0.50;0.50;;;;;10.36;71.74;98191.03;5113409;28;8931;-58
2023/12/31 08:32:54;;;;;;;;;0.00;0.00;;;;;10.37;71.61;98195.38;5117054;28;8816;-57
2023/12/31 08:35:21;;;;;;;;;1.00;1.00;;;;;10.38;71.69;98179.25;5116957;28;8819;-57
2023/12/31 08:37:49;;;;;;;;;0.25;0.25;;;;;10.39;71.63;98169.44;5099727;28;8966;-58
2023/12/31 08:40:19;;;;;;;;;1.00;1.00;;;;;10.42;72.02;98172.63;5076327;28;8830;-59
2023/12/31 08:42:47;;;;;;;;;2.50;2.50;;;;;10.45;71.43;98164.28;5075837;28;8854;-56
2023/12/31 08:45:15;;;;;;;;;1.00;1.00;;;;;10.51;71.30;98152.16;5075526;28;8855;-60
2023/12/31 08:47:42;;;;;;;;;0.50;0.00;;;;;10.52;71.26;98154.66;5075643;28;8817;-57
2023/12/31 08:50:11;;;;;;;;;1.00;1.00;;;;;10.56;71.02;98155.16;5075931;28;8958;-56
2023/12/31 08:52:39;;;;;;;;;0.00;0.00;;;;;10.59;71.16;98145.00;5075818;28;9497;-56
2023/12/31 08:55:07;;;;;;;;;1.50;1.00;;;;;10.61;71.16;98142.19;5076544;28;8832;-57
2023/12/31 08:57:35;;;;;;;;;0.00;0.00;;;;;10.61;70.91;98143.00;5075688;28;8824;-58
2023/12/31 09:00:02;;;;;;;;;2.50;0.50;;;;;10.62;71.30;98146.50;5076057;28;8827;-57
2023/12/31 09:02:30;;;;;;;;;1.00;1.00;;;;;10.65;71.26;98152.34;5075625;28;8840;-57
2023/12/31 09:04:58;;;;;;;;;0.25;0.25;;;;;10.68;71.00;98183.94;5077462;28;8843;-58
2023/12/31 09:07:26;;;;;;;;;2.50;2.50;;;;;10.70;70.44;98157.97;5095397;28;8838;-57
2023/12/31 09:09:53;;;;;;;;;1.00;1.00;;;;;10.73;70.82;98176.28;5095914;28;8814;-58
2023/12/31 09:12:21;;;;;;;;;1.00;1.00;;;;;10.77;70.56;98156.31;5095129;28;8818;-58
2023/12/31 09:14:49;;;;;;;;;1.50;1.00;;;;;10.81;70.65;98159.47;5095774;28;8845;-56
2023/12/31 09:17:16;;;;;;;;;1.00;1.00;;;;;10.87;70.14;98180.97;5095299;28;8830;-57
2023/12/31 09:19:44;;;;;;;;;0.00;0.00;;;;;10.91;70.33;98186.78;5094691;28;8822;-58
2023/12/31 09:22:11;;;;;;;;;3.00;3.00;;;;;10.95;70.28;98193.41;5094600;28;9500;-57
2023/12/31 09:24:39;;;;;;;;;3.00;3.00;;;;;11.00;70.24;98186.59;5094357;28;8860;-57
2023/12/31 09:27:07;;;;;;;;;3.00;3.00;;;;;11.03;69.55;98183.59;5094507;28;8842;-57
2023/12/31 09:29:35;;;;;;;;;3.00;2.00;;;;;11.04;70.01;98185.25;5094240;28;8935;-56
2023/12/31 09:32:03;;;;;;;;;2.00;1.00;;;;;11.06;70.25;98183.25;5094677;28;8834;-58
2023/12/31 09:34:30;;;;;;;;;1.50;1.50;;;;;11.08;70.07;98162.59;5095649;28;8818;-59
2023/12/31 09:36:58;;;;;;;;;1.00;1.00;;;;;11.12;69.43;98181.75;5095713;28;8830;-59
2023/12/31 09:39:26;;;;;;;;;1.00;1.00;;;;;11.14;69.81;98159.28;5095882;28;8924;-57
2023/12/31 09:41:53;;;;;;;;;0.25;0.00;;;;;11.17;69.44;98176.75;5095763;28;9484;-57
2023/12/31 09:44:21;;;;;;;;;1.50;1.50;;;;;11.18;69.85;98168.59;5095921;28;8869;-59
2023/12/31 09:46:49;;;;;;;;;3.50;3.50;;;;;11.21;69.44;98170.09;5094416;28;8910;-58
2023/12/31 09:49:35;;;;;;;;;1.50;1.50;;;;;11.21;69.29;98159.44;5095526;28;8822;-57
2023/12/31 09:52:03;;;;;;;;;3.00;3.00;;;;;11.22;69.72;98145.94;5095217;28;8851;-59
2023/12/31 09:54:31;;;;;;;;;1.00;1.00;;;;;11.24;69.13;98145.78;5094978;28;8826;-56
2023/12/31 09:56:58;;;;;;;;;1.50;1.00;;;;;11.23;69.29;98139.59;5099018;28;9555;-56
2023/12/31 09:59:26;;;;;;;;;0.75;0.75;;;;;11.24;69.36;98108.47;5099190;28;8862;-58
2023/12/31 10:01:54;;;;;;;;;3.00;3.00;;;;;11.25;69.45;98118.13;5098467;28;8826;-58
2023/12/31 10:04:21;;;;;;;;;4.00;3.00;;;;;11.28;69.75;98123.94;5078100;28;8895;-58
2023/12/31 10:06:50;;;;;;;;;3.75;2.50;;;;;11.31;69.14;98120.91;5112531;28;8820;-57
2023/12/31 10:09:18;;;;;;;;;3.00;3.00;;;;;11.37;69.02;98106.09;5118708;28;8831;-57
2023/12/31 10:11:45;;;;;;;;;3.00;1.00;;;;;11.40;68.82;98082.59;5119085;28;8842;-59
2023/12/31 10:14:13;;;;;;;;;3.75;3.50;;;;;11.43;69.34;98092.91;5118899;28;8828;-59
2023/12/31 10:16:43;;;;;;;;;0.00;0.00;;;;;11.49;68.56;98075.38;5118691;28;8948;-57
2023/12/31 10:19:11;;;;;;;;;5.50;4.00;;;;;11.54;68.66;98084.53;5109456;28;8822;-59
2023/12/31 10:21:39;;;;;;;;;2.00;1.00;;;;;11.58;68.75;98083.22;5097353;28;9523;-57
2023/12/31 10:24:08;;;;;;;;;3.25;3.00;;;;;11.60;68.83;98077.72;5098372;28;8825;-57
2023/12/31 10:26:36;;;;;;;;;3.00;3.00;;;;;11.64;68.52;98084.34;5097180;28;8860;-57
2023/12/31 10:29:04;;;;;;;;;2.50;1.00;;;;;11.71;68.74;98069.31;5102982;28;8836;-57
2023/12/31 10:31:32;;;;;;;;;3.50;3.50;;;;;11.79;68.29;98051.44;5096392;28;8863;-57
2023/12/31 10:34:00;;;;;;;;;2.00;2.00;;;;;11.86;67.96;98046.22;5097351;28;8821;-57
2023/12/31 10:36:28;;;;;;;;;0.00;0.00;;;;;11.98;67.93;98050.97;5096138;28;8826;-57
2023/12/31 10:38:59;;;;;;;;;3.00;3.00;;;;;12.05;67.28;98028.75;5097771;28;8830;-57
2023/12/31 10:41:26;;;;;;;;;4.00;4.00;;;;;12.28;66.66;98031.41;5099760;28;8868;-57
2023/12/31 10:43:54;;;;;;;;;1.00;1.00;;;;;12.49;66.53;98052.91;5097372;28;8846;-58
2023/12/31 10:46:22;;;;;;;;;3.75;3.00;;;;;13.03;65.78;98049.91;5100331;28;8838;-56
2023/12/31 10:48:49;;;;;;;;;6.25;5.00;;;;;13.74;63.27;98062.59;5112329;28;8808;-57
2023/12/31 10:51:18;;;;;;;;;2.00;2.00;;;;;14.11;62.96;98049.00;5116032;28;8827;-59
2023/12/31 10:53:45;;;;;;;;;1.00;1.00;;;;;13.93;63.31;98057.47;5089557;28;8824;-58
2023/12/31 10:56:15;;;;;;;;;3.75;3.75;;;;;13.59;64.28;98069.81;5077549;28;8840;-57
2023/12/31 10:58:43;;;;;;;;;3.25;3.25;;;;;13.22;65.15;98059.22;5077422;28;8975;-57
2023/12/31 11:01:10;;;;;;;;;4.00;3.75;;;;;12.92;65.60;98070.88;5077461;28;8816;-57
2023/12/31 11:03:38;;;;;;;;;3.00;3.00;;;;;12.68;65.96;98087.13;5083442;28;8913;-59
2023/12/31 11:06:06;;;;;;;;;3.00;3.00;;;;;12.53;66.64;98087.09;5118182;28;8819;-59
2023/12/31 11:08:34;;;;;;;;;4.00;3.75;;;;;12.44;66.93;98090.84;5118323;28;9280;-59
2023/12/31 11:11:01;;;;;;;;;3.00;1.50;;;;;12.35;67.18;98091.06;5097491;28;8831;-59
2023/12/31 11:13:29;;;;;;;;;2.00;2.00;;;;;12.30;67.14;98104.94;5077707;28;8859;-59
2023/12/31 11:15:57;;;;;;;;;4.00;3.75;;;;;12.29;67.91;98086.44;5076366;28;8954;-59
2023/12/31 11:18:24;;;;;;;;;2.00;2.00;;;;;12.31;67.29;98079.09;5076823;28;8878;-59
2023/12/31 11:20:52;;;;;;;;;3.25;3.00;;;;;12.24;67.71;98075.50;5075798;28;8870;-57
2023/12/31 11:23:23;;;;;;;;;1.00;1.00;;;;;12.16;67.86;98075.53;5076147;28;8958;-58
2023/12/31 11:25:51;;;;;;;;;2.75;2.75;;;;;12.07;67.83;98073.94;5075909;28;8917;-57
2023/12/31 11:28:19;;;;;;;;;3.00;1.00;;;;;12.02;67.67;98074.44;5076850;28;8870;-57
2023/12/31 11:30:47;;;;;;;;;4.00;3.75;;;;;12.01;67.86;98062.13;5075865;28;8828;-59
2023/12/31 11:33:15;;;;;;;;;1.00;1.00;;;;;12.02;67.79;98068.31;5076394;28;8816;-58
2023/12/31 11:35:43;;;;;;;;;2.50;1.50;;;;;12.02;67.25;98065.63;5076891;28;8859;-59
2023/12/31 11:38:11;;;;;;;;;1.00;1.00;;;;;12.01;67.61;98074.66;5076959;28;8856;-58
2023/12/31 11:40:39;;;;;;;;;3.00;3.00;;;;;11.94;68.05;98066.50;5084284;28;8826;-57
2023/12/31 11:43:07;;;;;;;;;1.00;1.00;;;;;11.87;67.92;98093.22;5097068;28;8854;-57
2023/12/31 11:45:34;;;;;;;;;2.00;2.00;;;;;11.79;67.70;98082.59;5096419;28;8834;-58
2023/12/31 11:48:02;;;;;;;;;0.75;0.75;;;;;11.74;67.91;98075.13;5095830;28;8860;-57
2023/12/31 11:50:30;;;;;;;;;1.00;1.00;;;;;11.73;67.91;98061.97;5097553;28;8830;-58
2023/12/31 11:52:57;;;;;;;;;0.00;0.00;;;;;11.71;67.91;98058.66;5096222;28;8857;-57